Homey (Area 51) Airport


Codes: KXTA/
Name: Homey (Area 51) Airport
City: Groom Lake
Country: United States
Elevation: 4462 ft.
Wikipedia:

Photos at Homey (Area 51) Airport


   Photos courtesy of SpottingLog. You can add your own sightings and photos by signing up for a free trial today.



No photos found.

Weather at Homey (Area 51) Airport


Time (UTC)DescriptionTempratureWindCloud coverageVisibilityPressureHumidity
25-Jun-2024 12:00Few Clouds23°C4 mph, SW11%10000m1010hPa37%
25-Jun-2024 15:00Clear Sky25°C4 mph, SW7%10000m1010hPa34%
25-Jun-2024 18:00Clear Sky30°C13 mph, SW4%10000m1010hPa27%
25-Jun-2024 21:00Clear Sky36°C16 mph, SW3%10000m1008hPa19%
26-Jun-2024 00:00Clear Sky36°C18 mph, SW3%10000m1006hPa19%
26-Jun-2024 03:00Light Rain29°C7 mph, S23%10000m1008hPa33%
26-Jun-2024 06:00Light Rain26°C7 mph, N14%10000m1011hPa38%
26-Jun-2024 09:00Light Rain26°C4 mph, N50%10000m1011hPa41%
26-Jun-2024 12:00Broken Clouds24°C4 mph, NE71%10000m1012hPa51%
26-Jun-2024 15:00Clear Sky26°C4 mph, E1%10000m1012hPa48%
26-Jun-2024 18:00Clear Sky32°C11 mph, S0%10000m1011hPa29%
26-Jun-2024 21:00Clear Sky35°C20 mph, SW0%10000m1008hPa18%
27-Jun-2024 00:00Clear Sky35°C20 mph, SW1%10000m1006hPa17%
27-Jun-2024 03:00Clear Sky31°C13 mph, SW1%10000m1006hPa19%
27-Jun-2024 06:00Clear Sky27°C7 mph, SW0%10000m1007hPa22%
27-Jun-2024 09:00Clear Sky25°C4 mph, N0%10000m1007hPa30%
27-Jun-2024 12:00Clear Sky22°C4 mph, NW0%10000m1007hPa43%
27-Jun-2024 15:00Clear Sky27°C2 mph, W0%10000m1007hPa32%
27-Jun-2024 18:00Clear Sky32°C16 mph, S0%10000m1005hPa16%
27-Jun-2024 21:00Clear Sky34°C20 mph, SW0%10000m1003hPa15%
28-Jun-2024 00:00Clear Sky34°C20 mph, SW0%10000m1001hPa12%
28-Jun-2024 03:00Clear Sky30°C20 mph, SW0%10000m1001hPa8%
28-Jun-2024 06:00Clear Sky24°C4 mph, SW0%10000m1003hPa13%
28-Jun-2024 09:00Clear Sky22°C2 mph, SW0%10000m1004hPa15%
28-Jun-2024 12:00Clear Sky20°C2 mph, W0%10000m1004hPa18%
28-Jun-2024 15:00Clear Sky25°C2 mph, SW0%10000m1006hPa13%
28-Jun-2024 18:00Clear Sky30°C9 mph, S0%10000m1005hPa11%
28-Jun-2024 21:00Clear Sky33°C16 mph, SW0%10000m1005hPa10%
29-Jun-2024 00:00Clear Sky33°C18 mph, SW0%10000m1004hPa9%
29-Jun-2024 03:00Clear Sky28°C9 mph, SW0%10000m1005hPa12%
29-Jun-2024 06:00Clear Sky24°C7 mph, SW0%10000m1007hPa17%
29-Jun-2024 09:00Clear Sky22°C4 mph, S0%10000m1008hPa22%
29-Jun-2024 12:00Clear Sky20°C0 mph, S0%10000m1009hPa27%
29-Jun-2024 15:00Clear Sky27°C2 mph, SE0%10000m1010hPa17%
29-Jun-2024 18:00Clear Sky32°C13 mph, S0%10000m1009hPa10%
29-Jun-2024 21:00Clear Sky34°C16 mph, S0%10000m1008hPa8%
30-Jun-2024 00:00Clear Sky34°C20 mph, SW0%10000m1006hPa7%
30-Jun-2024 03:00Clear Sky28°C11 mph, SW0%10000m1008hPa7%
30-Jun-2024 06:00Clear Sky23°C4 mph, SW0%10000m1009hPa11%
30-Jun-2024 09:00Clear Sky21°C4 mph, S0%10000m1009hPa13%